createdAt,value
2023-04-15T00:01:54.947Z,10.85
2023-04-15T00:04:22.009Z,10.80
2023-04-15T00:06:55.251Z,10.86
2023-04-15T00:09:21.944Z,10.85
2023-04-15T00:11:48.889Z,10.81
2023-04-15T00:14:15.576Z,10.85
2023-04-15T00:16:42.230Z,10.80
2023-04-15T00:19:09.037Z,10.79
2023-04-15T00:21:35.765Z,10.69
2023-04-15T00:24:02.457Z,10.68
2023-04-15T00:26:29.107Z,10.58
2023-04-15T00:28:56.725Z,10.50
2023-04-15T00:31:23.550Z,10.45
2023-04-15T00:33:50.598Z,10.43
2023-04-15T00:36:17.630Z,10.38
2023-04-15T00:38:44.276Z,10.36
2023-04-15T00:41:11.898Z,9.86
2023-04-15T00:43:39.045Z,9.63
2023-04-15T00:46:07.530Z,9.34
2023-04-15T00:48:34.168Z,9.14
2023-04-15T00:51:00.888Z,9.06
2023-04-15T00:53:27.516Z,9.13
2023-04-15T00:55:54.346Z,8.94
2023-04-15T00:58:21.204Z,8.99
2023-04-15T01:00:48.070Z,8.93
2023-04-15T01:03:15.515Z,8.84
2023-04-15T01:05:42.466Z,8.91
2023-04-15T01:08:09.799Z,8.89
2023-04-15T01:10:36.791Z,8.88
2023-04-15T01:13:04.189Z,8.73
2023-04-15T01:15:31.489Z,8.65
2023-04-15T01:17:59.575Z,8.57
2023-04-15T01:20:26.317Z,8.55
2023-04-15T01:22:54.880Z,8.55
2023-04-15T01:25:41.852Z,8.39
2023-04-15T01:28:09.512Z,8.51
2023-04-15T01:30:36.873Z,8.60
2023-04-15T01:33:03.739Z,8.32
2023-04-15T01:35:30.394Z,8.30
2023-04-15T01:38:09.435Z,8.30
2023-04-15T01:40:37.692Z,8.42
2023-04-15T01:43:04.551Z,8.40
2023-04-15T01:45:31.254Z,8.34
2023-04-15T01:47:57.887Z,8.20
2023-04-15T01:50:24.978Z,8.04
2023-04-15T01:52:52.063Z,8.18
2023-04-15T01:55:18.857Z,8.14
2023-04-15T01:57:46.505Z,8.26
2023-04-15T02:00:13.417Z,8.08
2023-04-15T02:02:40.311Z,8.11
2023-04-15T02:05:07.306Z,7.97
2023-04-15T02:07:33.946Z,7.97
2023-04-15T02:10:02.833Z,7.90
2023-04-15T02:12:29.588Z,7.83
2023-04-15T02:14:56.193Z,7.68
2023-04-15T02:17:22.813Z,7.58
2023-04-15T02:19:49.544Z,7.54
2023-04-15T02:22:18.688Z,7.59
2023-04-15T02:24:46.974Z,7.49
2023-04-15T02:27:18.001Z,7.43
2023-04-15T02:29:45.933Z,7.41
2023-04-15T02:32:13.147Z,7.38
2023-04-15T02:34:42.602Z,7.22
2023-04-15T02:37:11.648Z,7.29
2023-04-15T02:39:38.865Z,7.30
2023-04-15T02:42:06.064Z,7.31
2023-04-15T02:44:34.110Z,7.30
2023-04-15T02:47:04.885Z,7.14
2023-04-15T02:49:31.426Z,7.08
2023-04-15T02:51:59.862Z,6.95
2023-04-15T02:54:28.778Z,6.99
2023-04-15T02:56:56.222Z,7.04
2023-04-15T02:59:23.074Z,7.12
2023-04-15T03:01:49.880Z,7.16
2023-04-15T03:04:17.466Z,7.05
2023-04-15T03:06:44.528Z,6.85
2023-04-15T03:09:11.131Z,6.60
2023-04-15T03:11:40.713Z,6.59
2023-04-15T03:14:09.007Z,6.62
2023-04-15T03:16:39.488Z,6.67
2023-04-15T03:19:06.508Z,6.73
2023-04-15T03:21:34.322Z,6.76
2023-04-15T03:24:00.897Z,6.56
2023-04-15T03:26:29.431Z,6.43
2023-04-15T03:28:59.898Z,6.31
2023-04-15T03:31:27.103Z,6.20
2023-04-15T03:33:53.669Z,6.53
2023-04-15T03:36:20.338Z,6.38
2023-04-15T03:38:46.926Z,6.37
2023-04-15T03:41:13.890Z,6.42
2023-04-15T03:43:40.488Z,6.44
2023-04-15T03:46:07.255Z,6.47
2023-04-15T03:48:34.120Z,6.41
2023-04-15T03:51:00.763Z,6.28
2023-04-15T03:53:27.457Z,6.33
2023-04-15T03:55:54.039Z,6.58
2023-04-15T03:58:20.691Z,6.66
2023-04-15T04:00:47.360Z,6.74
2023-04-15T04:03:14.042Z,6.64
2023-04-15T04:05:41.575Z,6.67
2023-04-15T04:08:08.371Z,6.71
2023-04-15T04:10:35.125Z,6.98
2023-04-15T04:13:02.068Z,6.97
2023-04-15T04:15:28.738Z,6.92
2023-04-15T04:17:55.578Z,6.84
2023-04-15T04:20:22.199Z,6.83
2023-04-15T04:22:48.864Z,6.52
2023-04-15T04:25:15.502Z,6.54
2023-04-15T04:27:42.141Z,6.48
2023-04-15T04:30:09.203Z,6.52
2023-04-15T04:32:35.878Z,6.57
2023-04-15T04:35:03.051Z,6.52
2023-04-15T04:37:29.580Z,6.23
2023-04-15T04:39:56.147Z,6.28
2023-04-15T04:42:22.846Z,6.19
2023-04-15T04:44:49.490Z,6.24
2023-04-15T04:47:16.539Z,6.10
2023-04-15T04:49:43.184Z,6.19
2023-04-15T04:52:09.806Z,6.30
2023-04-15T04:54:36.433Z,6.41
2023-04-15T04:57:03.073Z,6.41
2023-04-15T04:59:29.655Z,6.38
2023-04-15T05:01:56.525Z,6.38
2023-04-15T05:04:23.209Z,6.38
2023-04-15T05:06:49.737Z,6.44
2023-04-15T05:09:16.407Z,6.53
2023-04-15T05:11:43.073Z,6.41
2023-04-15T05:14:09.629Z,6.43
2023-04-15T05:16:36.563Z,6.39
2023-04-15T05:19:03.365Z,6.42
2023-04-15T05:21:31.164Z,6.33
2023-04-15T05:23:57.755Z,6.21
2023-04-15T05:26:24.357Z,6.17
2023-04-15T05:28:50.954Z,6.15
2023-04-15T05:31:17.569Z,6.21
2023-04-15T05:33:44.259Z,6.13
2023-04-15T05:36:10.823Z,6.01
2023-04-15T05:38:37.481Z,6.25
2023-04-15T05:41:04.110Z,6.31
2023-04-15T05:43:31.055Z,6.49
2023-04-15T05:45:57.697Z,6.57
2023-04-15T05:48:24.349Z,6.57
2023-04-15T05:50:51.069Z,6.71
2023-04-15T05:53:17.700Z,6.86
2023-04-15T05:55:44.324Z,6.88
2023-04-15T05:58:11.387Z,6.91
2023-04-15T06:00:38.610Z,6.81
2023-04-15T06:03:06.297Z,6.99
2023-04-15T06:05:33.378Z,6.96
2023-04-15T06:07:59.960Z,7.03
2023-04-15T06:10:26.564Z,7.20
2023-04-15T06:12:53.433Z,7.29
2023-04-15T06:15:20.130Z,7.23
2023-04-15T06:17:46.733Z,7.33
2023-04-15T06:20:13.360Z,7.31
2023-04-15T06:22:40.228Z,7.22
2023-04-15T06:25:08.722Z,7.29
2023-04-15T06:27:35.401Z,7.27
2023-04-15T06:30:02.137Z,7.46
2023-04-15T06:32:28.838Z,7.40
2023-04-15T06:34:55.441Z,7.64
2023-04-15T06:37:22.113Z,7.70
2023-04-15T06:39:48.753Z,7.71
2023-04-15T06:42:15.455Z,7.86
2023-04-15T06:44:42.284Z,7.94
2023-04-15T06:47:09.188Z,7.98
2023-04-15T06:49:36.002Z,8.18
2023-04-15T06:52:02.771Z,8.23
2023-04-15T06:54:29.340Z,8.41
2023-04-15T06:56:56.048Z,8.63
2023-04-15T06:59:22.563Z,8.88
2023-04-15T07:01:49.183Z,9.18
2023-04-15T07:04:15.880Z,9.53
2023-04-15T07:06:42.862Z,9.85
2023-04-15T07:09:09.851Z,10.31
2023-04-15T07:11:36.661Z,10.96
2023-04-15T07:14:03.300Z,11.54
2023-04-15T07:16:30.467Z,12.16
2023-04-15T07:18:57.200Z,12.61
2023-04-15T07:21:25.917Z,13.08
2023-04-15T07:23:52.614Z,13.33
2023-04-15T07:26:19.275Z,13.71
2023-04-15T07:28:47.419Z,14.22
2023-04-15T07:31:14.909Z,14.73
2023-04-15T07:33:41.793Z,15.20
2023-04-15T07:36:08.696Z,15.60
2023-04-15T07:38:35.641Z,15.84
2023-04-15T07:41:02.578Z,16.11
2023-04-15T07:43:29.415Z,16.51
2023-04-15T07:45:56.072Z,16.81
2023-04-15T07:48:22.695Z,16.87
2023-04-15T07:50:49.398Z,17.35
2023-04-15T07:53:16.029Z,17.21
2023-04-15T07:55:42.672Z,17.47
2023-04-15T07:58:09.320Z,17.72
2023-04-15T08:00:36.247Z,18.14
2023-04-15T08:03:03.215Z,18.08
2023-04-15T08:05:30.277Z,18.10
2023-04-15T08:07:57.270Z,18.43
2023-04-15T08:10:23.899Z,18.67
2023-04-15T08:12:50.859Z,19.08
2023-04-15T08:15:17.660Z,19.15
2023-04-15T08:17:44.271Z,19.65
2023-04-15T08:20:11.551Z,19.60
2023-04-15T08:22:38.053Z,19.56
2023-04-15T08:25:05.118Z,19.53
2023-04-15T08:27:31.686Z,19.75
2023-04-15T08:29:58.450Z,19.71
2023-04-15T08:32:26.674Z,19.91
2023-04-15T08:34:53.475Z,20.17
2023-04-15T08:37:20.052Z,20.35
2023-04-15T08:39:46.614Z,21.04
2023-04-15T08:42:18.448Z,21.17
2023-04-15T08:44:46.677Z,21.18
2023-04-15T08:47:17.360Z,21.32
2023-04-15T08:49:44.448Z,21.46
2023-04-15T08:52:12.175Z,21.34
2023-04-15T08:54:38.959Z,21.73
2023-04-15T08:57:06.754Z,21.58
2023-04-15T08:59:33.367Z,21.55
2023-04-15T09:02:00.089Z,21.80
2023-04-15T09:04:28.537Z,21.95
2023-04-15T09:06:55.165Z,22.22
2023-04-15T09:09:22.651Z,22.50
2023-04-15T09:11:50.093Z,22.66
2023-04-15T09:14:17.366Z,22.52
2023-04-15T09:17:03.002Z,23.26
2023-04-15T09:19:30.328Z,22.94
2023-04-15T09:21:59.307Z,23.94
2023-04-15T09:24:36.153Z,23.38
2023-04-15T09:27:03.636Z,22.74
2023-04-15T09:29:30.329Z,22.06
2023-04-15T09:31:56.925Z,21.89
2023-04-15T09:34:35.916Z,22.24
2023-04-15T09:37:02.530Z,21.70
2023-04-15T09:39:45.791Z,22.50
2023-04-15T09:42:12.458Z,22.43
2023-04-15T09:44:39.101Z,22.59
2023-04-15T09:47:06.349Z,22.10
2023-04-15T09:49:33.118Z,21.98
2023-04-15T09:52:06.129Z,22.54
2023-04-15T09:54:38.036Z,22.72
2023-04-15T09:57:10.096Z,23.38
2023-04-15T09:59:37.084Z,23.45
2023-04-15T10:02:09.798Z,23.52
2023-04-15T10:04:40.714Z,23.37
2023-04-15T10:07:09.573Z,23.96
2023-04-15T10:09:38.280Z,24.13
2023-04-15T10:12:05.288Z,23.80
2023-04-15T10:14:33.308Z,24.40
2023-04-15T10:17:03.253Z,23.52
2023-04-15T10:19:33.725Z,23.25
2023-04-15T10:22:00.389Z,22.92
2023-04-15T10:24:27.955Z,22.77
2023-04-15T10:26:55.413Z,22.26
2023-04-15T10:29:23.595Z,22.50
2023-04-15T10:31:51.024Z,21.73
2023-04-15T10:34:18.833Z,21.95
2023-04-15T10:36:47.054Z,22.07
2023-04-15T10:39:38.705Z,21.58
2023-04-15T10:42:11.400Z,21.22
2023-04-15T10:44:39.314Z,21.21
2023-04-15T10:47:18.988Z,21.46
2023-04-15T10:49:56.999Z,21.31
2023-04-15T10:52:27.519Z,21.88
2023-04-15T10:55:13.310Z,21.72
2023-04-15T10:57:43.131Z,21.36
2023-04-15T11:00:11.519Z,21.83
2023-04-15T11:02:44.114Z,22.14
2023-04-15T11:05:12.095Z,22.63
2023-04-15T11:07:48.617Z,22.54
2023-04-15T11:10:18.546Z,22.30
2023-04-15T11:12:46.023Z,22.33
2023-04-15T11:15:33.246Z,22.81
2023-04-15T11:18:09.660Z,22.88
2023-04-15T11:20:37.631Z,22.91
2023-04-15T11:23:13.889Z,22.47
2023-04-15T11:25:43.217Z,22.26
2023-04-15T11:28:11.414Z,21.82
2023-04-15T11:30:39.009Z,21.13
2023-04-15T11:33:12.262Z,21.61
2023-04-15T11:35:40.968Z,21.18
2023-04-15T11:38:13.796Z,21.07
2023-04-15T11:40:42.459Z,21.10
2023-04-15T11:43:15.934Z,20.93
2023-04-15T11:45:51.345Z,21.10
2023-04-15T11:48:18.753Z,21.27
2023-04-15T11:50:45.628Z,21.27
2023-04-15T11:53:16.207Z,20.86
2023-04-15T11:55:47.888Z,21.14
2023-04-15T11:58:19.418Z,20.86
2023-04-15T12:00:54.705Z,21.11
2023-04-15T12:03:27.785Z,21.16
2023-04-15T12:06:16.405Z,21.03
2023-04-15T12:08:55.970Z,20.74
2023-04-15T12:11:47.460Z,20.44
2023-04-15T12:14:28.341Z,20.06
2023-04-15T12:16:56.040Z,20.25
2023-04-15T12:19:28.606Z,20.09
2023-04-15T12:22:04.266Z,19.48
2023-04-15T12:24:35.948Z,19.01
2023-04-15T12:27:08.071Z,19.27
2023-04-15T12:29:37.333Z,19.26
2023-04-15T12:32:08.497Z,19.40
2023-04-15T12:34:35.723Z,19.61
2023-04-15T12:37:05.016Z,19.42
2023-04-15T12:39:42.052Z,19.41
2023-04-15T12:42:09.798Z,19.28
2023-04-15T12:44:37.704Z,19.21
2023-04-15T12:47:04.963Z,19.19
2023-04-15T12:49:32.637Z,19.24
2023-04-15T12:52:01.613Z,19.51
2023-04-15T12:54:29.725Z,19.58
2023-04-15T12:56:56.853Z,19.44
2023-04-15T12:59:26.577Z,19.48
2023-04-15T13:01:53.660Z,19.56
2023-04-15T13:04:21.341Z,19.60
2023-04-15T13:06:51.533Z,19.84
2023-04-15T13:09:18.303Z,19.82
2023-04-15T13:11:44.904Z,19.70
2023-04-15T13:14:12.990Z,20.20
2023-04-15T13:16:39.947Z,20.75
2023-04-15T13:19:07.364Z,21.22
2023-04-15T13:21:35.688Z,21.51
2023-04-15T13:24:03.616Z,22.42
2023-04-15T13:26:31.335Z,22.61
2023-04-15T13:28:58.167Z,23.57
2023-04-15T13:31:24.750Z,23.56
2023-04-15T13:33:51.816Z,24.57
2023-04-15T13:36:20.489Z,25.22
2023-04-15T13:38:49.680Z,25.90
2023-04-15T13:41:17.744Z,25.73
2023-04-15T13:43:44.408Z,26.59
2023-04-15T13:46:11.155Z,27.16
2023-04-15T13:48:40.705Z,28.13
2023-04-15T13:51:07.265Z,28.71
2023-04-15T13:53:38.679Z,28.56
2023-04-15T13:56:10.360Z,28.47
2023-04-15T13:58:37.963Z,27.79
2023-04-15T14:01:07.610Z,27.30
2023-04-15T14:03:36.088Z,26.60
2023-04-15T14:06:03.235Z,26.97
2023-04-15T14:08:30.022Z,28.34
2023-04-15T14:10:57.575Z,29.01
2023-04-15T14:13:24.280Z,28.87
2023-04-15T14:15:50.824Z,29.67
2023-04-15T14:18:17.546Z,29.40
2023-04-15T14:20:46.619Z,28.88
2023-04-15T14:23:13.185Z,29.95
2023-04-15T14:25:39.823Z,29.41
2023-04-15T14:28:06.363Z,28.98
2023-04-15T14:30:33.304Z,28.74
2023-04-15T14:33:00.317Z,28.56
2023-04-15T14:35:27.381Z,28.36
2023-04-15T14:37:54.677Z,29.12
2023-04-15T14:40:21.994Z,28.31
2023-04-15T14:42:48.718Z,28.21
2023-04-15T14:45:15.435Z,28.03
2023-04-15T14:47:42.165Z,27.49
2023-04-15T14:50:09.258Z,26.79
2023-04-15T14:52:39.048Z,25.80
2023-04-15T14:55:07.792Z,24.53
2023-04-15T14:57:34.628Z,24.38
2023-04-15T15:00:01.383Z,24.82
2023-04-15T15:02:38.118Z,23.97
2023-04-15T15:05:07.231Z,23.39
2023-04-15T15:07:33.988Z,23.21
2023-04-15T15:10:00.928Z,23.08
2023-04-15T15:12:27.596Z,22.71
2023-04-15T15:14:55.991Z,22.99
2023-04-15T15:17:22.623Z,22.92
2023-04-15T15:19:49.615Z,22.89
2023-04-15T15:22:16.370Z,23.62
2023-04-15T15:24:43.125Z,24.26
2023-04-15T15:27:10.012Z,24.51
2023-04-15T15:29:37.918Z,25.22
2023-04-15T15:32:04.740Z,25.34
2023-04-15T15:34:32.072Z,25.72
2023-04-15T15:36:58.775Z,26.17
2023-04-15T15:39:25.990Z,27.00
2023-04-15T15:41:52.679Z,27.86
2023-04-15T15:44:19.352Z,27.79
2023-04-15T15:46:46.266Z,27.97
2023-04-15T15:49:12.969Z,28.08
2023-04-15T15:51:39.695Z,28.52
2023-04-15T15:54:06.546Z,28.50
2023-04-15T15:56:34.385Z,28.35
2023-04-15T15:59:02.022Z,28.11
2023-04-15T16:01:28.969Z,26.87
2023-04-15T16:03:55.863Z,25.88
2023-04-15T16:06:22.596Z,25.67
2023-04-15T16:08:49.217Z,25.11
2023-04-15T16:11:16.047Z,25.16
2023-04-15T16:13:42.797Z,24.86
2023-04-15T16:16:09.411Z,24.52
2023-04-15T16:18:36.287Z,24.44
2023-04-15T16:21:02.925Z,24.29
2023-04-15T16:23:29.603Z,24.32
2023-04-15T16:25:56.243Z,23.96
2023-04-15T16:28:26.869Z,23.73
2023-04-15T16:30:55.003Z,23.65
2023-04-15T16:33:21.609Z,23.44
2023-04-15T16:35:48.283Z,23.40
2023-04-15T16:38:15.837Z,22.96
2023-04-15T16:40:42.493Z,22.64
2023-04-15T16:43:11.224Z,22.22
2023-04-15T16:45:38.143Z,21.77
2023-04-15T16:48:05.013Z,21.38
2023-04-15T16:50:31.882Z,21.33
2023-04-15T16:52:58.526Z,21.06
2023-04-15T16:55:25.408Z,20.91
2023-04-15T16:58:01.525Z,20.73
2023-04-15T17:00:31.603Z,20.37
2023-04-15T17:02:59.228Z,20.34
2023-04-15T17:05:29.200Z,20.30
2023-04-15T17:07:55.938Z,20.17
2023-04-15T17:10:23.372Z,20.03
2023-04-15T17:12:51.911Z,20.03
2023-04-15T17:15:19.432Z,19.92
2023-04-15T17:17:46.146Z,19.82
2023-04-15T17:20:13.014Z,19.67
2023-04-15T17:22:39.869Z,19.30
2023-04-15T17:25:06.997Z,19.27
2023-04-15T17:27:33.655Z,19.36
2023-04-15T17:30:00.332Z,19.32
2023-04-15T17:32:31.780Z,19.20
2023-04-15T17:34:58.717Z,18.92
2023-04-15T17:37:25.604Z,18.94
2023-04-15T17:39:53.364Z,18.93
2023-04-15T17:42:19.915Z,18.86
2023-04-15T17:44:46.472Z,18.69
2023-04-15T17:47:13.076Z,18.58
2023-04-15T17:49:39.852Z,18.34
2023-04-15T17:52:06.521Z,17.91
2023-04-15T17:54:33.163Z,17.42
2023-04-15T17:57:00.107Z,17.26
2023-04-15T17:59:27.864Z,16.97
2023-04-15T18:01:55.026Z,16.69
2023-04-15T18:04:24.051Z,16.58
2023-04-15T18:06:52.790Z,16.33
2023-04-15T18:09:19.365Z,16.25
2023-04-15T18:11:48.282Z,16.25
2023-04-15T18:14:26.642Z,16.10
2023-04-15T18:16:57.788Z,16.03
2023-04-15T18:19:25.762Z,15.94
2023-04-15T18:21:52.572Z,15.87
2023-04-15T18:24:19.347Z,15.80
2023-04-15T18:26:48.742Z,15.70
2023-04-15T18:29:15.656Z,15.63
2023-04-15T18:31:42.265Z,15.49
2023-04-15T18:34:09.166Z,15.51
2023-04-15T18:36:35.830Z,15.56
2023-04-15T18:39:02.873Z,15.55
2023-04-15T18:41:29.793Z,15.47
2023-04-15T18:43:56.506Z,15.25
2023-04-15T18:46:23.181Z,15.17
2023-04-15T18:48:49.870Z,15.24
2023-04-15T18:51:16.546Z,15.14
2023-04-15T18:53:43.242Z,15.15
2023-04-15T18:56:09.906Z,15.07
2023-04-15T18:59:26.022Z,15.15
2023-04-15T19:01:24.193Z,15.08
2023-04-15T19:03:50.978Z,15.08
2023-04-15T19:06:17.712Z,15.00
2023-04-15T19:08:44.456Z,15.07
2023-04-15T19:11:11.360Z,14.97
2023-04-15T19:13:37.936Z,15.02
2023-04-15T19:16:04.819Z,14.94
2023-04-15T19:18:31.438Z,14.89
2023-04-15T19:20:58.215Z,14.84
2023-04-15T19:23:25.005Z,14.83
2023-04-15T19:25:51.637Z,14.84
2023-04-15T19:28:18.296Z,14.84
2023-04-15T19:30:44.974Z,14.74
2023-04-15T19:33:12.051Z,14.73
2023-04-15T19:35:40.473Z,14.70
2023-04-15T19:38:07.024Z,14.67
2023-04-15T19:40:33.784Z,14.57
2023-04-15T19:43:00.496Z,14.61
2023-04-15T19:45:27.291Z,14.51
2023-04-15T19:47:54.367Z,14.36
2023-04-15T19:50:25.808Z,14.37
2023-04-15T19:52:53.096Z,14.44
2023-04-15T19:55:20.071Z,14.29
2023-04-15T19:57:46.876Z,14.47
2023-04-15T20:00:13.884Z,14.46
2023-04-15T20:02:40.877Z,14.41
2023-04-15T20:05:09.876Z,14.32
2023-04-15T20:07:36.845Z,14.30
2023-04-15T20:10:08.523Z,14.25
2023-04-15T20:12:51.475Z,14.17
2023-04-15T20:15:20.826Z,14.20
2023-04-15T20:17:47.553Z,14.20
2023-04-15T20:20:14.268Z,14.08
2023-04-15T20:22:41.431Z,14.04
2023-04-15T20:25:08.804Z,13.86
2023-04-15T20:27:35.495Z,13.77
2023-04-15T20:30:04.672Z,13.76
2023-04-15T20:32:36.019Z,13.68
2023-04-15T20:35:05.558Z,13.52
2023-04-15T20:37:33.567Z,13.31
2023-04-15T20:40:00.685Z,13.01
2023-04-15T20:42:27.262Z,12.71
2023-04-15T20:44:53.965Z,12.73
2023-04-15T20:47:20.798Z,12.79
2023-04-15T20:49:47.550Z,12.65
2023-04-15T20:52:14.232Z,12.60
2023-04-15T20:54:41.049Z,12.50
2023-04-15T20:57:07.666Z,12.38
2023-04-15T20:59:34.806Z,12.24
2023-04-15T21:02:01.923Z,12.10
2023-04-15T21:04:28.685Z,12.10
2023-04-15T21:06:55.406Z,12.06
2023-04-15T21:09:22.029Z,12.10
2023-04-15T21:14:19.256Z,12.08
2023-04-15T21:16:46.040Z,12.12
2023-04-15T21:19:12.705Z,12.04
2023-04-15T21:21:39.389Z,11.88
2023-04-15T21:24:07.903Z,11.71
2023-04-15T21:26:36.095Z,11.63
2023-04-15T21:29:03.054Z,11.58
2023-04-15T21:31:30.068Z,11.49
2023-04-15T21:33:56.742Z,11.61
2023-04-15T21:36:23.336Z,11.45
2023-04-15T21:38:49.927Z,11.46
2023-04-15T21:41:16.525Z,11.65
2023-04-15T21:43:43.243Z,11.64
2023-04-15T21:46:22.697Z,11.72
2023-04-15T21:48:50.714Z,11.65
2023-04-15T21:51:17.330Z,11.62
2023-04-15T21:53:43.987Z,11.49
2023-04-15T21:56:10.843Z,11.47
2023-04-15T21:58:37.575Z,11.48
2023-04-15T22:01:04.966Z,11.55
2023-04-15T22:03:33.888Z,11.49
2023-04-15T22:06:01.834Z,11.35
2023-04-15T22:08:28.482Z,11.28
2023-04-15T22:10:55.487Z,11.19
2023-04-15T22:13:22.082Z,11.17
2023-04-15T22:15:48.776Z,11.11
2023-04-15T22:18:15.541Z,11.08
2023-04-15T22:20:42.174Z,11.08
2023-04-15T22:23:09.751Z,11.11
2023-04-15T22:25:37.192Z,11.16
2023-04-15T22:28:07.930Z,11.21
2023-04-15T22:30:41.430Z,11.11
2023-04-15T22:33:09.236Z,11.25
2023-04-15T22:35:37.179Z,11.37
2023-04-15T22:38:04.844Z,11.37
2023-04-15T22:40:31.465Z,11.36
2023-04-15T22:42:58.120Z,11.42
2023-04-15T22:45:24.642Z,11.43
2023-04-15T22:47:51.337Z,11.38
2023-04-15T22:50:18.078Z,11.42
2023-04-15T22:52:46.201Z,11.46
2023-04-15T22:55:13.168Z,11.40
2023-04-15T22:57:39.851Z,11.41
2023-04-15T23:00:07.358Z,11.33
2023-04-15T23:02:34.757Z,11.33
2023-04-15T23:05:04.599Z,11.36
2023-04-15T23:07:38.970Z,11.17
2023-04-15T23:10:06.117Z,11.28
2023-04-15T23:12:32.783Z,11.35
2023-04-15T23:14:59.467Z,11.22
2023-04-15T23:17:26.786Z,11.18
2023-04-15T23:19:53.461Z,10.99
2023-04-15T23:22:20.050Z,11.08
2023-04-15T23:24:46.630Z,10.79
2023-04-15T23:27:13.365Z,10.56
2023-04-15T23:29:40.029Z,10.37
2023-04-15T23:32:06.815Z,10.29
2023-04-15T23:34:33.430Z,10.23
2023-04-15T23:37:00.052Z,10.35
2023-04-15T23:39:26.726Z,10.29
2023-04-15T23:41:53.466Z,10.35
2023-04-15T23:44:20.289Z,10.37
2023-04-15T23:46:47.097Z,10.33
2023-04-15T23:49:13.672Z,10.08
2023-04-15T23:51:40.979Z,10.00
2023-04-15T23:54:07.590Z,10.04
2023-04-15T23:56:34.257Z,9.94
2023-04-15T23:59:01.106Z,10.06
